sensor_id;sensor_type;location;lat;lon;timestamp;pressure;altitude;pressure_sealevel;temperature;humidity
62976;BME280;49071;0.000;0.000;2023-06-22T05:10:23;101361.22;;;23.94;57.58
62976;BME280;49071;0.000;0.000;2023-06-22T05:13:24;101365.22;;;24.01;57.46
62976;BME280;49071;0.000;0.000;2023-06-22T05:16:26;101355.22;;;24.05;57.22
62976;BME280;49071;0.000;0.000;2023-06-22T05:19:26;101359.59;;;24.06;57.25
62976;BME280;49071;0.000;0.000;2023-06-22T05:22:33;101353.97;;;24.10;57.05
62976;BME280;49071;0.000;0.000;2023-06-22T05:25:33;101360.91;;;24.13;56.94
62976;BME280;49071;0.000;0.000;2023-06-22T05:28:33;101359.84;;;24.16;56.97
62976;BME280;49071;0.000;0.000;2023-06-22T05:31:33;101360.63;;;24.18;56.82
62976;BME280;49071;0.000;0.000;2023-06-22T05:34:34;101362.34;;;24.19;56.77
62976;BME280;49071;0.000;0.000;2023-06-22T05:37:34;101373.03;;;24.19;56.83
62976;BME280;49071;0.000;0.000;2023-06-22T05:40:34;101371.22;;;24.19;56.58
62976;BME280;49071;0.000;0.000;2023-06-22T05:43:34;101370.34;;;24.19;56.57
62976;BME280;49071;0.000;0.000;2023-06-22T05:46:35;101375.59;;;24.20;56.57
62976;BME280;49071;0.000;0.000;2023-06-22T05:49:35;101385.22;;;24.23;56.51
62976;BME280;49071;0.000;0.000;2023-06-22T05:52:35;101379.03;;;24.22;56.34
62976;BME280;49071;0.000;0.000;2023-06-22T05:55:35;101378.06;;;24.23;56.34
62976;BME280;49071;0.000;0.000;2023-06-22T05:58:35;101382.44;;;24.24;56.22
62976;BME280;49071;0.000;0.000;2023-06-22T06:01:36;101388.69;;;24.25;56.38
62976;BME280;49071;0.000;0.000;2023-06-22T06:04:36;101385.06;;;24.26;56.14
62976;BME280;49071;0.000;0.000;2023-06-22T06:07:36;101394.91;;;24.25;56.20
62976;BME280;49071;0.000;0.000;2023-06-22T06:10:37;101395.75;;;24.26;55.77
62976;BME280;49071;0.000;0.000;2023-06-22T06:13:37;101397.47;;;24.27;55.93
62976;BME280;49071;0.000;0.000;2023-06-22T06:16:37;101399.19;;;24.28;55.96
62976;BME280;49071;0.000;0.000;2023-06-22T06:19:38;101402.81;;;24.27;55.82
62976;BME280;49071;0.000;0.000;2023-06-22T06:22:38;101406.25;;;24.29;55.77
62976;BME280;49071;0.000;0.000;2023-06-22T06:25:38;101405.38;;;24.28;55.83
62976;BME280;49071;0.000;0.000;2023-06-22T06:28:38;101397.25;;;24.30;55.20
62976;BME280;49071;0.000;0.000;2023-06-22T06:31:38;101404.31;;;24.31;54.71
62976;BME280;49071;0.000;0.000;2023-06-22T06:34:39;101407.00;;;24.31;54.90
62976;BME280;49071;0.000;0.000;2023-06-22T06:37:41;101408.72;;;24.32;55.10
62976;BME280;49071;0.000;0.000;2023-06-22T06:40:41;101402.50;;;24.31;54.72
62976;BME280;49071;0.000;0.000;2023-06-22T06:43:41;101403.31;;;24.33;54.90
62976;BME280;49071;0.000;0.000;2023-06-22T06:46:44;101403.31;;;24.33;55.01
62976;BME280;49071;0.000;0.000;2023-06-22T06:49:44;101404.16;;;24.34;55.10
62976;BME280;49071;0.000;0.000;2023-06-22T06:52:45;101407.69;;;24.34;54.83
62976;BME280;49071;0.000;0.000;2023-06-22T06:55:45;101405.03;;;24.34;54.98
62976;BME280;49071;0.000;0.000;2023-06-22T06:58:45;101401.38;;;24.35;54.91
62976;BME280;49071;0.000;0.000;2023-06-22T07:01:45;101397.84;;;24.35;54.91
62976;BME280;49071;0.000;0.000;2023-06-22T07:04:48;101398.59;;;24.37;54.88
62976;BME280;49071;0.000;0.000;2023-06-22T07:07:48;101396.78;;;24.37;54.91
62976;BME280;49071;0.000;0.000;2023-06-22T07:10:49;101395.84;;;24.38;54.85
62976;BME280;49071;0.000;0.000;2023-06-22T07:13:49;101397.63;;;24.38;54.84
62976;BME280;49071;0.000;0.000;2023-06-22T07:16:49;101381.50;;;24.40;54.98
62976;BME280;49071;0.000;0.000;2023-06-22T07:19:50;101376.16;;;24.40;54.67
62976;BME280;49071;0.000;0.000;2023-06-22T07:22:51;101365.47;;;24.40;54.75
62976;BME280;49071;0.000;0.000;2023-06-22T07:25:51;101367.28;;;24.39;54.77
62976;BME280;49071;0.000;0.000;2023-06-22T07:28:51;101355.63;;;24.40;54.76
62976;BME280;49071;0.000;0.000;2023-06-22T07:31:51;101351.13;;;24.41;54.86
62976;BME280;49071;0.000;0.000;2023-06-22T07:34:52;101350.16;;;24.42;54.66
62976;BME280;49071;0.000;0.000;2023-06-22T07:37:52;101351.88;;;24.43;54.72
62976;BME280;49071;0.000;0.000;2023-06-22T07:40:52;101345.66;;;24.42;54.72
62976;BME280;49071;0.000;0.000;2023-06-22T07:43:53;101353.69;;;24.42;54.56
62976;BME280;49071;0.000;0.000;2023-06-22T07:46:53;101351.88;;;24.43;54.66
62976;BME280;49071;0.000;0.000;2023-06-22T07:49:54;101355.41;;;24.43;54.93
62976;BME280;49071;0.000;0.000;2023-06-22T07:52:54;101351.75;;;24.44;54.62
62976;BME280;49071;0.000;0.000;2023-06-22T07:55:54;101346.41;;;24.44;54.74
62976;BME280;49071;0.000;0.000;2023-06-22T07:58:55;101347.25;;;24.45;54.80
62976;BME280;49071;0.000;0.000;2023-06-22T08:01:58;101349.00;;;24.46;54.66
62976;BME280;49071;0.000;0.000;2023-06-22T08:04:58;101341.91;;;24.45;54.94
62976;BME280;49071;0.000;0.000;2023-06-22T08:07:58;101342.78;;;24.45;54.57
62976;BME280;49071;0.000;0.000;2023-06-22T08:10:58;101341.72;;;24.48;54.43
62976;BME280;49071;0.000;0.000;2023-06-22T08:13:58;101336.38;;;24.48;54.31
62976;BME280;49071;0.000;0.000;2023-06-22T08:16:59;101329.09;;;24.50;54.28
62976;BME280;49071;0.000;0.000;2023-06-22T08:19:59;101320.31;;;24.48;54.49
62976;BME280;49071;0.000;0.000;2023-06-22T08:22:59;101322.03;;;24.49;54.35
62976;BME280;49071;0.000;0.000;2023-06-22T08:26:05;101322.03;;;24.49;54.26
62976;BME280;49071;0.000;0.000;2023-06-22T08:29:05;101322.03;;;24.49;54.52
62976;BME280;49071;0.000;0.000;2023-06-22T08:32:06;101326.53;;;24.48;54.31
62976;BME280;49071;0.000;0.000;2023-06-22T08:35:07;101329.94;;;24.50;54.21
62976;BME280;49071;0.000;0.000;2023-06-22T08:38:08;101330.81;;;24.51;54.28
62976;BME280;49071;0.000;0.000;2023-06-22T08:41:08;101321.94;;;24.50;54.29
62976;BME280;49071;0.000;0.000;2023-06-22T08:44:09;101329.94;;;24.50;54.46
62976;BME280;49071;0.000;0.000;2023-06-22T08:47:09;101336.16;;;24.51;54.30
62976;BME280;49071;0.000;0.000;2023-06-22T08:50:09;101330.81;;;24.51;54.38
62976;BME280;49071;0.000;0.000;2023-06-22T08:53:10;101336.16;;;24.51;54.42
62976;BME280;49071;0.000;0.000;2023-06-22T08:56:10;101335.19;;;24.52;54.36
62976;BME280;49071;0.000;0.000;2023-06-22T08:59:10;101333.38;;;24.52;54.43
62976;BME280;49071;0.000;0.000;2023-06-22T09:02:11;101330.69;;;24.52;54.34
62976;BME280;49071;0.000;0.000;2023-06-22T09:05:11;101320.00;;;24.52;54.36
62976;BME280;49071;0.000;0.000;2023-06-22T09:08:11;101318.22;;;24.53;54.40
62976;BME280;49071;0.000;0.000;2023-06-22T09:11:11;101312.84;;;24.53;54.36
62976;BME280;49071;0.000;0.000;2023-06-22T09:14:11;101314.66;;;24.52;54.45
62976;BME280;49071;0.000;0.000;2023-06-22T09:17:12;101306.63;;;24.52;54.50
62976;BME280;49071;0.000;0.000;2023-06-22T09:20:12;101308.34;;;24.53;54.33
62976;BME280;49071;0.000;0.000;2023-06-22T09:23:13;101309.22;;;24.54;54.27
62976;BME280;49071;0.000;0.000;2023-06-22T09:26:13;101305.56;;;24.55;54.17
62976;BME280;49071;0.000;0.000;2023-06-22T09:29:13;101295.72;;;24.55;54.29
62976;BME280;49071;0.000;0.000;2023-06-22T09:32:13;101291.22;;;24.56;54.34
62976;BME280;49071;0.000;0.000;2023-06-22T09:35:13;101288.56;;;24.56;54.25
62976;BME280;49071;0.000;0.000;2023-06-22T09:38:14;101293.91;;;24.56;54.23
62976;BME280;49071;0.000;0.000;2023-06-22T09:41:14;101292.94;;;24.57;54.30
62976;BME280;49071;0.000;0.000;2023-06-22T09:44:14;101290.25;;;24.57;54.23
62976;BME280;49071;0.000;0.000;2023-06-22T09:47:14;101290.25;;;24.57;54.25
62976;BME280;49071;0.000;0.000;2023-06-22T09:50:14;101285.78;;;24.57;54.29
62976;BME280;49071;0.000;0.000;2023-06-22T09:53:15;101297.31;;;24.58;54.35
62976;BME280;49071;0.000;0.000;2023-06-22T09:56:15;101294.66;;;24.58;54.36
62976;BME280;49071;0.000;0.000;2023-06-22T09:59:15;101296.47;;;24.57;54.34
62976;BME280;49071;0.000;0.000;2023-06-22T10:02:16;101306.22;;;24.58;54.32
62976;BME280;49071;0.000;0.000;2023-06-22T10:05:17;101300.00;;;24.58;54.41
62976;BME280;49071;0.000;0.000;2023-06-22T10:08:17;101299.03;;;24.59;54.25
62976;BME280;49071;0.000;0.000;2023-06-22T10:11:17;101303.47;;;24.60;54.15
62976;BME280;49071;0.000;0.000;2023-06-22T10:14:17;101300.78;;;24.60;54.35
62976;BME280;49071;0.000;0.000;2023-06-22T10:17:18;101301.63;;;24.60;54.34
62976;BME280;49071;0.000;0.000;2023-06-22T10:20:18;101300.78;;;24.60;54.27
62976;BME280;49071;0.000;0.000;2023-06-22T10:23:19;101298.97;;;24.60;54.34
62976;BME280;49071;0.000;0.000;2023-06-22T10:26:19;101300.78;;;24.60;54.28
62976;BME280;49071;0.000;0.000;2023-06-22T10:29:20;101304.31;;;24.60;54.26
62976;BME280;49071;0.000;0.000;2023-06-22T10:32:20;101309.66;;;24.60;54.27
62976;BME280;49071;0.000;0.000;2023-06-22T10:35:20;101303.47;;;24.60;54.29
62976;BME280;49071;0.000;0.000;2023-06-22T10:38:20;101298.09;;;24.60;54.22
62976;BME280;49071;0.000;0.000;2023-06-22T10:41:21;101292.75;;;24.60;54.29
62976;BME280;49071;0.000;0.000;2023-06-22T10:44:21;101296.16;;;24.62;54.42
62976;BME280;49071;0.000;0.000;2023-06-22T10:47:22;101293.59;;;24.60;54.35
62976;BME280;49071;0.000;0.000;2023-06-22T10:50:22;101283.75;;;24.61;54.32
62976;BME280;49071;0.000;0.000;2023-06-22T10:53:24;101288.25;;;24.60;54.32
62976;BME280;49071;0.000;0.000;2023-06-22T10:56:24;101294.47;;;24.61;54.39
62976;BME280;49071;0.000;0.000;2023-06-22T10:59:24;101285.56;;;24.60;54.27
62976;BME280;49071;0.000;0.000;2023-06-22T11:02:25;101286.31;;;24.62;54.32
62976;BME280;49071;0.000;0.000;2023-06-22T11:05:28;101282.78;;;24.62;54.24
62976;BME280;49071;0.000;0.000;2023-06-22T11:08:28;101286.31;;;24.62;54.32
62976;BME280;49071;0.000;0.000;2023-06-22T11:11:28;101276.59;;;24.61;54.20
62976;BME280;49071;0.000;0.000;2023-06-22T11:14:28;101275.63;;;24.62;54.31
62976;BME280;49071;0.000;0.000;2023-06-22T11:17:28;101269.41;;;24.62;54.20
62976;BME280;49071;0.000;0.000;2023-06-22T11:20:29;101264.91;;;24.62;54.24
62976;BME280;49071;0.000;0.000;2023-06-22T11:23:29;101251.53;;;24.62;54.31
62976;BME280;49071;0.000;0.000;2023-06-22T11:26:30;101253.25;;;24.63;54.35
62976;BME280;49071;0.000;0.000;2023-06-22T11:29:31;101243.50;;;24.62;54.24
62976;BME280;49071;0.000;0.000;2023-06-22T11:32:31;101243.50;;;24.62;54.25
62976;BME280;49071;0.000;0.000;2023-06-22T11:35:32;101229.16;;;24.63;54.39
62976;BME280;49071;0.000;0.000;2023-06-22T11:38:32;101236.34;;;24.63;54.27
62976;BME280;49071;0.000;0.000;2023-06-22T11:41:33;101230.13;;;24.62;54.54
62976;BME280;49071;0.000;0.000;2023-06-22T11:44:33;101224.66;;;24.64;54.24
62976;BME280;49071;0.000;0.000;2023-06-22T11:47:33;101217.50;;;24.64;54.20
62976;BME280;49071;0.000;0.000;2023-06-22T11:50:34;101225.50;;;24.64;54.57
62976;BME280;49071;0.000;0.000;2023-06-22T11:53:36;101224.66;;;24.64;54.82
62976;BME280;49071;0.000;0.000;2023-06-22T11:56:36;101229.03;;;24.65;54.46
62976;BME280;49071;0.000;0.000;2023-06-22T11:59:36;101226.38;;;24.65;54.44
62976;BME280;49071;0.000;0.000;2023-06-22T12:02:36;101220.16;;;24.64;54.26
62976;BME280;49071;0.000;0.000;2023-06-22T12:05:36;101217.38;;;24.66;54.25
62976;BME280;49071;0.000;0.000;2023-06-22T12:08:37;101222.72;;;24.66;54.34
62976;BME280;49071;0.000;0.000;2023-06-22T12:11:37;101212.03;;;24.66;54.44
62976;BME280;49071;0.000;0.000;2023-06-22T12:14:37;101217.38;;;24.66;54.22
62976;BME280;49071;0.000;0.000;2023-06-22T12:17:37;101207.53;;;24.66;54.31
62976;BME280;49071;0.000;0.000;2023-06-22T12:20:38;101202.16;;;24.66;54.28
62976;BME280;49071;0.000;0.000;2023-06-22T12:23:38;101203.06;;;24.67;54.28
62976;BME280;49071;0.000;0.000;2023-06-22T12:26:38;101212.88;;;24.66;54.37
62976;BME280;49071;0.000;0.000;2023-06-22T12:29:38;101215.56;;;24.66;54.54
62976;BME280;49071;0.000;0.000;2023-06-22T12:32:38;101205.63;;;24.69;54.29
62976;BME280;49071;0.000;0.000;2023-06-22T12:35:39;101211.81;;;24.69;54.18
62976;BME280;49071;0.000;0.000;2023-06-22T12:38:39;101206.38;;;24.71;53.92
62976;BME280;49071;0.000;0.000;2023-06-22T12:41:39;101204.53;;;24.71;53.97
62976;BME280;49071;0.000;0.000;2023-06-22T12:44:39;101201.00;;;24.71;53.91
62976;BME280;49071;0.000;0.000;2023-06-22T12:47:39;101182.28;;;24.71;53.97
62976;BME280;49071;0.000;0.000;2023-06-22T12:50:40;101183.13;;;24.71;53.94
62976;BME280;49071;0.000;0.000;2023-06-22T12:53:40;101174.25;;;24.71;53.99
62976;BME280;49071;0.000;0.000;2023-06-22T12:56:40;101172.41;;;24.71;54.17
62976;BME280;49071;0.000;0.000;2023-06-22T12:59:40;101168.03;;;24.70;54.32
62976;BME280;49071;0.000;0.000;2023-06-22T13:02:40;101172.41;;;24.71;54.41
62976;BME280;49071;0.000;0.000;2023-06-22T13:05:41;101172.41;;;24.71;54.61
62976;BME280;49071;0.000;0.000;2023-06-22T13:08:42;101169.75;;;24.71;54.24
62976;BME280;49071;0.000;0.000;2023-06-22T13:11:42;101165.25;;;24.72;54.27
62976;BME280;49071;0.000;0.000;2023-06-22T13:14:42;101159.91;;;24.72;54.10
62976;BME280;49071;0.000;0.000;2023-06-22T13:17:43;101151.88;;;24.72;54.00
62976;BME280;49071;0.000;0.000;2023-06-22T13:20:43;101144.69;;;24.72;54.13
62976;BME280;49071;0.000;0.000;2023-06-22T13:23:45;101148.22;;;24.73;54.24
62976;BME280;49071;0.000;0.000;2023-06-22T13:26:45;101132.16;;;24.73;54.16
62976;BME280;49071;0.000;0.000;2023-06-22T13:29:45;101133.03;;;24.73;54.17
62976;BME280;49071;0.000;0.000;2023-06-22T13:32:45;101133.03;;;24.73;54.39
62976;BME280;49071;0.000;0.000;2023-06-22T13:35:46;101131.19;;;24.74;54.30
62976;BME280;49071;0.000;0.000;2023-06-22T13:38:46;101127.56;;;24.75;54.26
62976;BME280;49071;0.000;0.000;2023-06-22T13:41:47;101125.84;;;24.74;54.04
62976;BME280;49071;0.000;0.000;2023-06-22T13:44:47;101119.63;;;24.73;54.27
62976;BME280;49071;0.000;0.000;2023-06-22T13:47:47;101125.75;;;24.75;54.18
62976;BME280;49071;0.000;0.000;2023-06-22T13:50:47;101118.47;;;24.77;54.02
62976;BME280;49071;0.000;0.000;2023-06-22T13:53:47;101122.00;;;24.78;53.91
62976;BME280;49071;0.000;0.000;2023-06-22T13:56:48;101116.75;;;24.76;54.22
62976;BME280;49071;0.000;0.000;2023-06-22T13:59:49;101111.53;;;24.75;54.47
62976;BME280;49071;0.000;0.000;2023-06-22T14:02:49;101110.56;;;24.76;54.11
62976;BME280;49071;0.000;0.000;2023-06-22T14:05:50;101106.06;;;24.76;53.98
62976;BME280;49071;0.000;0.000;2023-06-22T14:08:54;101102.41;;;24.77;54.11
62976;BME280;49071;0.000;0.000;2023-06-22T14:11:54;101099.72;;;24.77;54.12
62976;BME280;49071;0.000;0.000;2023-06-22T14:14:54;101092.56;;;24.78;54.19
62976;BME280;49071;0.000;0.000;2023-06-22T14:17:54;101087.19;;;24.78;54.09
62976;BME280;49071;0.000;0.000;2023-06-22T14:20:55;101078.19;;;24.79;54.14
62976;BME280;49071;0.000;0.000;2023-06-22T14:23:55;101079.16;;;24.78;54.17
62976;BME280;49071;0.000;0.000;2023-06-22T14:26:55;101080.88;;;24.79;54.30
62976;BME280;49071;0.000;0.000;2023-06-22T14:29:55;101079.91;;;24.80;54.15
62976;BME280;49071;0.000;0.000;2023-06-22T14:32:56;101073.69;;;24.79;54.08
62976;BME280;49071;0.000;0.000;2023-06-22T14:35:56;101059.34;;;24.80;54.05
62976;BME280;49071;0.000;0.000;2023-06-22T14:38:56;101055.81;;;24.80;54.06
62976;BME280;49071;0.000;0.000;2023-06-22T14:41:56;101048.63;;;24.80;54.05
62976;BME280;49071;0.000;0.000;2023-06-22T14:44:56;101054.88;;;24.81;54.09
62976;BME280;49071;0.000;0.000;2023-06-22T14:47:57;101046.84;;;24.81;54.00
62976;BME280;49071;0.000;0.000;2023-06-22T14:50:57;101034.31;;;24.81;54.07
62976;BME280;49071;0.000;0.000;2023-06-22T14:53:57;101028.97;;;24.81;53.99
62976;BME280;49071;0.000;0.000;2023-06-22T14:56:57;101025.31;;;24.82;53.89
62976;BME280;49071;0.000;0.000;2023-06-22T14:59:57;101022.63;;;24.82;54.12
62976;BME280;49071;0.000;0.000;2023-06-22T15:02:57;101017.28;;;24.82;54.06
62976;BME280;49071;0.000;0.000;2023-06-22T15:05:59;101018.13;;;24.83;54.03
62976;BME280;49071;0.000;0.000;2023-06-22T15:09:00;101015.47;;;24.83;54.23
62976;BME280;49071;0.000;0.000;2023-06-22T15:12:00;101013.53;;;24.85;54.04
62976;BME280;49071;0.000;0.000;2023-06-22T15:15:02;101009.13;;;24.84;54.14
62976;BME280;49071;0.000;0.000;2023-06-22T15:18:03;101007.44;;;24.83;54.04
62976;BME280;49071;0.000;0.000;2023-06-22T15:21:03;101011.81;;;24.84;54.19
62976;BME280;49071;0.000;0.000;2023-06-22T15:24:03;100992.94;;;24.85;54.04
62976;BME280;49071;0.000;0.000;2023-06-22T15:27:04;100976.91;;;24.85;53.94
62976;BME280;49071;0.000;0.000;2023-06-22T15:30:04;100967.03;;;24.86;53.94
62976;BME280;49071;0.000;0.000;2023-06-22T15:33:05;100968.75;;;24.87;53.87
62976;BME280;49071;0.000;0.000;2023-06-22T15:36:05;100958.03;;;24.87;54.01
62976;BME280;49071;0.000;0.000;2023-06-22T15:39:06;100951.84;;;24.86;54.03
62976;BME280;49071;0.000;0.000;2023-06-22T15:42:06;100954.50;;;24.86;54.00
62976;BME280;49071;0.000;0.000;2023-06-22T15:45:07;100958.88;;;24.87;53.93
62976;BME280;49071;0.000;0.000;2023-06-22T15:48:07;100959.78;;;24.88;53.89
62976;BME280;49071;0.000;0.000;2023-06-22T15:51:07;100962.44;;;24.88;53.89
62976;BME280;49071;0.000;0.000;2023-06-22T15:54:07;100959.53;;;24.91;54.03
62976;BME280;49071;0.000;0.000;2023-06-22T15:57:08;100960.25;;;24.93;53.91
62976;BME280;49071;0.000;0.000;2023-06-22T16:00:08;100948.81;;;24.91;54.04
62976;BME280;49071;0.000;0.000;2023-06-22T16:03:11;100956.84;;;24.91;54.07
62976;BME280;49071;0.000;0.000;2023-06-22T16:06:11;100953.31;;;24.90;54.24
62976;BME280;49071;0.000;0.000;2023-06-22T16:09:11;100951.50;;;24.91;54.08
62976;BME280;49071;0.000;0.000;2023-06-22T16:12:14;100944.31;;;24.91;54.13
62976;BME280;49071;0.000;0.000;2023-06-22T16:15:14;100943.47;;;24.91;54.21
62976;BME280;49071;0.000;0.000;2023-06-22T16:18:14;100945.16;;;24.92;54.17
62976;BME280;49071;0.000;0.000;2023-06-22T16:21:15;100935.31;;;24.92;54.38
62976;BME280;49071;0.000;0.000;2023-06-22T16:24:16;100934.25;;;24.95;53.76
62976;BME280;49071;0.000;0.000;2023-06-22T16:27:17;100935.97;;;24.96;53.74
62976;BME280;49071;0.000;0.000;2023-06-22T16:30:18;100928.66;;;24.98;53.97
62976;BME280;49071;0.000;0.000;2023-06-22T16:33:18;100913.44;;;24.99;54.38
62976;BME280;49071;0.000;0.000;2023-06-22T16:36:18;100906.13;;;25.01;54.16
62976;BME280;49071;0.000;0.000;2023-06-22T16:39:18;100909.56;;;25.03;53.92
62976;BME280;49071;0.000;0.000;2023-06-22T16:42:18;100914.84;;;25.04;53.93
62976;BME280;49071;0.000;0.000;2023-06-22T16:45:19;100909.38;;;25.06;53.88
62976;BME280;49071;0.000;0.000;2023-06-22T16:48:19;100897.81;;;25.05;54.07
62976;BME280;49071;0.000;0.000;2023-06-22T16:51:20;100887.09;;;25.05;53.94
62976;BME280;49071;0.000;0.000;2023-06-22T16:54:20;100887.09;;;25.05;54.14
62976;BME280;49071;0.000;0.000;2023-06-22T16:57:21;100879.78;;;25.07;53.76
62976;BME280;49071;0.000;0.000;2023-06-22T17:00:22;100875.19;;;25.09;53.66
62976;BME280;49071;0.000;0.000;2023-06-22T17:03:27;100870.56;;;25.11;53.73
62976;BME280;49071;0.000;0.000;2023-06-22T17:06:28;100859.59;;;25.14;53.86
62976;BME280;49071;0.000;0.000;2023-06-22T17:09:28;100856.72;;;25.17;53.90
62976;BME280;49071;0.000;0.000;2023-06-22T17:12:29;100851.22;;;25.19;53.88
62976;BME280;49071;0.000;0.000;2023-06-22T17:15:30;100843.91;;;25.21;54.00
62976;BME280;49071;0.000;0.000;2023-06-22T17:18:31;100837.50;;;25.24;54.07
62976;BME280;49071;0.000;0.000;2023-06-22T17:21:32;100840.16;;;25.24;54.07
62976;BME280;49071;0.000;0.000;2023-06-22T17:24:33;100847.09;;;25.26;54.08
62976;BME280;49071;0.000;0.000;2023-06-22T17:27:33;100857.69;;;25.28;54.25
62976;BME280;49071;0.000;0.000;2023-06-22T17:30:33;100867.19;;;25.32;54.06
62976;BME280;49071;0.000;0.000;2023-06-22T17:33:34;100849.31;;;25.32;54.23
62976;BME280;49071;0.000;0.000;2023-06-22T17:36:44;100841.25;;;25.32;54.05
62976;BME280;49071;0.000;0.000;2023-06-22T17:39:44;100836.75;;;25.33;53.82
62976;BME280;49071;0.000;0.000;2023-06-22T17:42:51;100838.47;;;25.34;54.01
62976;BME280;49071;0.000;0.000;2023-06-22T17:45:51;100839.19;;;25.36;54.25
62976;BME280;49071;0.000;0.000;2023-06-22T17:48:52;100836.50;;;25.36;54.18
62976;BME280;49071;0.000;0.000;2023-06-22T17:51:52;100837.34;;;25.36;54.26
62976;BME280;49071;0.000;0.000;2023-06-22T17:54:52;100841.63;;;25.39;54.29
62976;BME280;49071;0.000;0.000;2023-06-22T17:57:56;100830.06;;;25.38;54.25
62976;BME280;49071;0.000;0.000;2023-06-22T18:00:56;100823.59;;;25.41;54.14
62976;BME280;49071;0.000;0.000;2023-06-22T18:03:56;100801.91;;;25.44;54.22
62976;BME280;49071;0.000;0.000;2023-06-22T18:06:57;100794.88;;;25.43;54.18
62976;BME280;49071;0.000;0.000;2023-06-22T18:09:58;100801.91;;;25.44;54.49
62976;BME280;49071;0.000;0.000;2023-06-22T18:13:00;100804.38;;;25.47;54.31
62976;BME280;49071;0.000;0.000;2023-06-22T18:16:00;100789.28;;;25.46;54.17
62976;BME280;49071;0.000;0.000;2023-06-22T18:19:01;100790.13;;;25.46;54.39
62976;BME280;49071;0.000;0.000;2023-06-22T18:22:02;100778.44;;;25.47;54.23
62976;BME280;49071;0.000;0.000;2023-06-22T18:25:02;100782.69;;;25.50;54.21
62976;BME280;49071;0.000;0.000;2023-06-22T18:28:04;100774.41;;;25.53;54.28
62976;BME280;49071;0.000;0.000;2023-06-22T18:31:05;100765.53;;;25.53;54.24
62976;BME280;49071;0.000;0.000;2023-06-22T18:34:06;100752.97;;;25.53;54.48
62976;BME280;49071;0.000;0.000;2023-06-22T18:37:11;100748.34;;;25.55;54.37
62976;BME280;49071;0.000;0.000;2023-06-22T18:40:12;100750.75;;;25.58;54.57
62976;BME280;49071;0.000;0.000;2023-06-22T18:43:20;100747.97;;;25.60;54.65
62976;BME280;49071;0.000;0.000;2023-06-22T18:46:36;100736.28;;;25.61;54.55
62976;BME280;49071;0.000;0.000;2023-06-22T18:52:39;100754.41;;;25.57;54.44
62976;BME280;49071;0.000;0.000;2023-06-22T18:55:40;100764.28;;;25.57;54.40
62976;BME280;49071;0.000;0.000;2023-06-22T18:58:41;100774.16;;;25.56;54.28
62976;BME280;49071;0.000;0.000;2023-06-22T19:01:41;100783.91;;;25.57;54.24
62976;BME280;49071;0.000;0.000;2023-06-22T19:04:43;100788.41;;;25.57;54.13
62976;BME280;49071;0.000;0.000;2023-06-22T19:10:52;100784.88;;;25.56;54.24
62976;BME280;49071;0.000;0.000;2023-06-22T19:13:53;100790.25;;;25.56;54.18
62976;BME280;49071;0.000;0.000;2023-06-22T19:16:58;100782.31;;;25.55;54.45
62976;BME280;49071;0.000;0.000;2023-06-22T19:20:05;100785.00;;;25.55;54.14
62976;BME280;49071;0.000;0.000;2023-06-22T19:23:06;100780.50;;;25.55;54.09
62976;BME280;49071;0.000;0.000;2023-06-22T19:26:22;100767.94;;;25.56;54.15
62976;BME280;49071;0.000;0.000;2023-06-22T19:29:22;100772.31;;;25.57;54.21
62976;BME280;49071;0.000;0.000;2023-06-22T19:32:23;100765.13;;;25.57;54.23
62976;BME280;49071;0.000;0.000;2023-06-22T19:35:24;100767.72;;;25.59;54.16
62976;BME280;49071;0.000;0.000;2023-06-22T19:38:26;100763.94;;;25.61;54.25
62976;BME280;49071;0.000;0.000;2023-06-22T19:41:27;100754.91;;;25.62;54.65
62976;BME280;49071;0.000;0.000;2023-06-22T19:44:28;100744.91;;;25.64;54.29
62976;BME280;49071;0.000;0.000;2023-06-22T19:47:28;100727.13;;;25.63;54.28
62976;BME280;49071;0.000;0.000;2023-06-22T19:50:32;100737.63;;;25.66;54.14
62976;BME280;49071;0.000;0.000;2023-06-22T19:53:33;100737.63;;;25.66;54.07
62976;BME280;49071;0.000;0.000;2023-06-22T19:56:34;100730.44;;;25.67;54.06
62976;BME280;49071;0.000;0.000;2023-06-22T19:59:35;100717.16;;;25.65;53.81
62976;BME280;49071;0.000;0.000;2023-06-22T20:02:35;100717.41;;;25.62;50.02
62976;BME280;49071;0.000;0.000;2023-06-22T20:05:42;100714.34;;;25.56;49.24
62976;BME280;49071;0.000;0.000;2023-06-22T20:11:43;100713.78;;;25.52;49.94
62976;BME280;49071;0.000;0.000;2023-06-22T20:14:43;100714.63;;;25.53;49.02
62976;BME280;49071;0.000;0.000;2023-06-22T20:17:43;100703.16;;;25.51;49.38
62976;BME280;49071;0.000;0.000;2023-06-22T20:20:47;100699.63;;;25.50;49.69
62976;BME280;49071;0.000;0.000;2023-06-22T20:23:48;100710.34;;;25.50;49.62
